Terminal Aerodrome Forecast
Issued by NWS Wilmington, NC

Home | Current Version | Previous Version | Text Only | Print | Product List | Glossary On
Versions: 1 2 3 4 5 6 7 8 9 10 11 12 13 14 15 16 17 18 19 20 21 22 23 24 25
000
FTUS42 KILM 231000 AAA
TAFILM
TAF AMD
KILM 231007Z 2310/2406 02003KT P6SM BKN018
      TEMPO 2310/2313 SCT018 SCT070
     FM231300 36005KT P6SM FEW020 SCT070 SCT150
     FM231700 06006KT P6SM VCSH SCT040 BKN150=

USA.gov is the U.S. government's official web portal to all federal, state and local government web resources and services.